Terminal Aerodrome Forecast
Issued by NWS

Home | Current Version | Previous Version | Graphics & Text | Print | Product List | Glossary On
Versions: 1 2 3 4 5 6 7 8 9 10 11 12 13 14 15 16 17 18 19 20
000
FTUS43 KBIS 280130 AAA
TAFMOT
TAF AMD
KMOT 280130Z 2802/2824 13012KT P6SM SCT050
     FM280400 11020KT P6SM VCTS BKN080CB
      TEMPO 2804/2807 VRB20G30KT 5SM -TSRA BKN050CB
     FM280700 25018G25KT P6SM VCSH BKN035
     FM281600 23025G40KT P6SM SCT100=

USA.gov is the U.S. government's official web portal to all federal, state and local government web resources and services.